Andersonville, Tennessee
Current Conditions -  °F | °C
As of 11:53 PM on Tuesday 25 Nov 2014 (Local Time) from KOQT Reporting Station
Clear Clear  
Wind Chill: 47°   Ceiling: Unl
Heat Index: 47°   Visibility: 10mi
Dew Point: 31°   Wind: 3mph
Humidity: 54%   Direction: 50°NE
Pressure: 30.07"   Gusts: NA
Location:  36.2°N, 84.04°W
Report Text: KOQT 260453Z AUTO 05003KT 10SM CLR 08/M01 A3007 RMK AO2 SLP186 T00831006 401500017
Loading
Personal Weather Stations






























Interactive Weather Map New forecast layout! Learn more

10-Day Weather Forecast

Advertisements
Track Severe Weather on mobile